Time;durP1;ratioP1;P1;durP2;ratioP2;P2;SDS_P1;SDS_P2;PMS_P1;PMS_P2;Temp;Humidity;BMP_temperature;BMP_pressure;BME280_temperature;BME280_humidity;BME280_pressure;Samples;Min_cycle;Max_cycle;Signal;HPM_P1;HPM_P2
2022/01/11 00:00:51;;;;;;;41.70;18.80;;;;;;;-0.27;100.00;97298.72;5020433;28;20021;-88
2022/01/11 00:03:18;;;;;;;36.77;19.90;;;;;;;-0.30;100.00;97300.63;5041251;28;20029;-88
2022/01/11 00:05:58;;;;;;;46.73;19.17;;;;;;;-0.44;100.00;97306.34;5028848;28;20111;-87
2022/01/11 00:08:33;;;;;;;206.37;25.97;;;;;;;-0.47;100.00;97301.31;5029841;28;20568;-88
2022/01/11 00:11:05;;;;;;;73.47;17.87;;;;;;;-0.44;100.00;97295.16;5039330;28;20037;-87
2022/01/11 00:13:41;;;;;;;44.60;18.73;;;;;;;-0.43;100.00;97302.88;5026412;28;20475;-87
2022/01/11 00:16:09;;;;;;;48.17;19.47;;;;;;;-0.41;100.00;97308.81;5024037;28;20472;-87
2022/01/11 00:18:36;;;;;;;39.97;19.37;;;;;;;-0.45;100.00;97303.84;5023698;28;20495;-87
2022/01/11 00:21:02;;;;;;;32.77;19.13;;;;;;;-0.44;100.00;97301.19;5035900;28;20456;-88
2022/01/11 00:26:49;;;;;;;39.00;20.53;;;;;;;-0.34;100.00;97311.97;5031751;28;20444;-87
2022/01/11 00:29:15;;;;;;;39.20;21.37;;;;;;;-0.33;100.00;97314.50;5040199;28;20992;-87
2022/01/11 00:31:43;;;;;;;38.80;20.73;;;;;;;-0.32;100.00;97312.75;5015303;28;20033;-87
2022/01/11 00:34:09;;;;;;;40.80;22.60;;;;;;;-0.35;100.00;97316.28;5030354;28;20048;-88
2022/01/11 00:36:42;;;;;;;42.93;22.57;;;;;;;-0.34;100.00;97322.31;4997249;28;20471;-87
2022/01/11 00:39:13;;;;;;;33.40;20.20;;;;;;;-0.31;100.00;97322.16;5014592;28;20033;-87
2022/01/11 00:41:40;;;;;;;38.33;20.03;;;;;;;-0.37;100.00;97323.28;5003481;28;20735;-87
2022/01/11 00:44:07;;;;;;;42.00;21.07;;;;;;;-0.35;100.00;97328.38;5009390;28;20530;-86
2022/01/11 00:46:33;;;;;;;41.43;21.60;;;;;;;-0.31;100.00;97323.00;5008793;28;20478;-86
2022/01/11 00:48:59;;;;;;;39.77;21.83;;;;;;;-0.30;100.00;97327.28;5031444;28;20519;-87
2022/01/11 00:51:25;;;;;;;40.57;21.60;;;;;;;-0.29;100.00;97328.97;5033031;28;20476;-87
2022/01/11 00:53:52;;;;;;;48.10;24.67;;;;;;;-0.27;100.00;97323.72;5012416;28;20036;-87
2022/01/11 00:56:17;;;;;;;44.10;23.70;;;;;;;-0.20;100.00;97326.88;5025549;28;20056;-87
2022/01/11 00:58:43;;;;;;;42.73;25.10;;;;;;;-0.19;100.00;97329.41;5026989;28;20021;-87
2022/01/11 01:01:27;;;;;;;42.17;22.93;;;;;;;-0.16;100.00;97326.69;5041071;28;20504;-87
2022/01/11 01:03:53;;;;;;;42.00;22.58;;;;;;;-0.12;100.00;97332.56;5039272;28;20043;-87
2022/01/11 01:06:29;;;;;;;45.73;23.43;;;;;;;-0.15;100.00;97338.72;5003028;28;20032;-87
2022/01/11 01:08:54;;;;;;;48.87;24.43;;;;;;;-0.13;100.00;97333.47;5043362;28;20436;-87
2022/01/11 01:11:21;;;;;;;40.07;22.83;;;;;;;-0.14;100.00;97344.72;5032379;28;20572;-87
2022/01/11 01:13:48;;;;;;;39.67;20.90;;;;;;;-0.13;100.00;97342.06;5015312;28;20741;-87
2022/01/11 01:16:14;;;;;;;40.20;20.43;;;;;;;-0.15;100.00;97348.22;5022329;28;20029;-87
2022/01/11 01:18:58;;;;;;;39.80;21.07;;;;;;;-0.09;100.00;97353.13;5037186;28;20463;-87
2022/01/11 01:21:24;;;;;;;44.93;23.77;;;;;;;-0.16;100.00;97341.38;5014730;28;20472;-87
2022/01/11 01:23:54;;;;;;;41.37;21.67;;;;;;;-0.21;100.00;97343.31;5029996;28;20049;-87
2022/01/11 01:26:20;;;;;;;40.07;22.00;;;;;;;-0.19;100.00;97344.09;5038898;28;20025;-87
2022/01/11 01:28:47;;;;;;;44.50;21.83;;;;;;;-0.21;100.00;97348.47;5015023;28;20522;-86
2022/01/11 01:31:14;;;;;;;39.57;21.03;;;;;;;-0.22;100.00;97351.97;5030808;28;20032;-86
2022/01/11 01:33:40;;;;;;;39.93;21.43;;;;;;;-0.23;100.00;97348.56;5032655;28;20486;-87
2022/01/11 01:36:11;;;;;;;39.63;20.87;;;;;;;-0.23;100.00;97340.78;5030168;28;20475;-87
2022/01/11 01:39:27;;;;;;;40.23;21.20;;;;;;;-0.25;100.00;97346.00;5014139;28;20100;-87
2022/01/11 01:41:53;;;;;;;42.37;21.30;;;;;;;-0.31;100.00;97343.69;5026025;28;20041;-88
2022/01/11 01:44:19;;;;;;;36.67;20.50;;;;;;;-0.25;100.00;97346.00;5029867;28;21039;-87
2022/01/11 01:46:45;;;;;;;47.73;21.27;;;;;;;-0.29;100.00;97341.06;5012797;28;20471;-87
2022/01/11 01:49:16;;;;;;;45.30;23.20;;;;;;;-0.28;100.00;97348.72;5030473;28;20506;-87
2022/01/11 01:51:43;;;;;;;41.53;22.07;;;;;;;-0.30;100.00;97350.56;5020792;28;20042;-88
2022/01/11 01:54:09;;;;;;;41.70;23.27;;;;;;;-0.24;100.00;97355.44;5026529;28;21222;-88
2022/01/11 01:57:28;;;;;;;39.53;21.77;;;;;;;-0.24;100.00;97352.03;5025650;28;20449;-87
2022/01/11 01:59:54;;;;;;;40.33;20.67;;;;;;;-0.21;100.00;97364.81;5000937;28;20479;-87
2022/01/11 02:02:22;;;;;;;36.67;20.83;;;;;;;-0.17;100.00;97362.94;5035268;28;20467;-87
2022/01/11 02:04:50;;;;;;;37.97;20.83;;;;;;;-0.18;100.00;97359.53;5012564;28;20466;-87
2022/01/11 02:07:15;;;;;;;36.70;20.77;;;;;;;-0.17;100.00;97358.59;5026753;28;20033;-87
2022/01/11 02:09:41;;;;;;;38.07;21.87;;;;;;;-0.17;100.00;97350.00;5029831;28;20900;-88
2022/01/11 02:12:07;;;;;;;38.87;20.83;;;;;;;-0.14;100.00;97349.88;5018722;28;20530;-87
2022/01/11 02:14:34;;;;;;;40.50;20.30;;;;;;;-0.12;100.00;97356.69;5011624;28;20116;-87
2022/01/11 02:17:03;;;;;;;43.33;19.97;;;;;;;-0.14;100.00;97360.22;5030015;28;20472;-87
2022/01/11 02:19:29;;;;;;;41.07;20.37;;;;;;;-0.15;100.00;97353.38;5004633;28;20483;-87
2022/01/11 02:21:55;;;;;;;38.77;20.00;;;;;;;-0.17;100.00;97345.69;5038890;28;20463;-87
2022/01/11 02:24:22;;;;;;;34.83;19.77;;;;;;;-0.24;100.00;97355.44;5009660;28;20037;-88
2022/01/11 02:26:49;;;;;;;34.37;19.30;;;;;;;-0.25;100.00;97353.78;5010651;28;20460;-87
2022/01/11 02:29:16;;;;;;;36.50;20.10;;;;;;;-0.24;100.00;97355.44;5013410;28;20087;-87
2022/01/11 02:31:45;;;;;;;44.27;22.37;;;;;;;-0.19;100.00;97357.84;5026528;28;20487;-87
2022/01/11 02:34:13;;;;;;;37.50;20.47;;;;;;;-0.16;100.00;97352.53;5038526;28;20460;-88
2022/01/11 02:36:46;;;;;;;31.40;18.73;;;;;;;-0.21;100.00;97356.22;5009628;28;20108;-87
2022/01/11 02:39:35;;;;;;;30.77;18.10;;;;;;;-0.32;100.00;97351.53;5014494;28;20475;-88
2022/01/11 02:42:19;;;;;;;34.67;18.83;;;;;;;-0.37;100.00;97349.13;5039608;28;20460;-88
2022/01/11 02:44:45;;;;;;;33.13;19.40;;;;;;;-0.37;100.00;97353.44;5019873;28;20546;-87
2022/01/11 02:47:18;;;;;;;36.77;18.30;;;;;;;-0.35;100.00;97347.31;5035871;28;20033;-88
2022/01/11 02:49:44;;;;;;;38.13;19.87;;;;;;;-0.32;100.00;97354.09;5037007;28;21012;-87
2022/01/11 02:52:15;;;;;;;36.33;19.70;;;;;;;-0.29;100.00;97353.97;5020883;28;20460;-87
2022/01/11 02:54:44;;;;;;;32.93;18.37;;;;;;;-0.25;100.00;97351.19;5012947;28;20475;-87
2022/01/11 02:57:17;;;;;;;36.00;19.57;;;;;;;-0.16;100.00;97359.47;4997472;28;20468;-87
2022/01/11 02:59:50;;;;;;;31.83;19.20;;;;;;;-0.23;100.00;97361.47;5013211;28;21203;-88
2022/01/11 03:02:18;;;;;;;35.47;17.87;;;;;;;-0.22;100.00;97352.81;5008039;28;20468;-86
2022/01/11 03:04:45;;;;;;;30.60;17.37;;;;;;;-0.22;100.00;97354.56;5037022;28;20451;-87
2022/01/11 03:07:20;;;;;;;31.07;17.63;;;;;;;-0.28;100.00;97350.47;5019496;28;20456;-87
2022/01/11 03:10:05;;;;;;;32.80;17.50;;;;;;;-0.29;100.00;97357.41;4992725;28;20464;-87
2022/01/11 03:12:43;;;;;;;35.03;18.73;;;;;;;-0.32;100.00;97352.34;5018966;28;20451;-87
2022/01/11 03:15:11;;;;;;;33.53;18.83;;;;;;;-0.36;100.00;97355.16;5026597;28;20463;-87
2022/01/11 03:17:38;;;;;;;28.67;16.73;;;;;;;-0.35;100.00;97360.22;5022491;28;20451;-87
2022/01/11 03:20:06;;;;;;;32.53;19.00;;;;;;;-0.38;100.00;97362.94;5019381;28;20452;-87
2022/01/11 03:22:32;;;;;;;35.27;18.97;;;;;;;-0.37;100.00;97361.19;5042690;28;20460;-86
2022/01/11 03:24:58;;;;;;;34.33;18.50;;;;;;;-0.39;100.00;97352.69;5022362;28;20478;-87
2022/01/11 03:27:25;;;;;;;33.07;18.00;;;;;;;-0.37;100.00;97353.44;5038770;28;20115;-87
2022/01/11 03:29:51;;;;;;;33.47;18.50;;;;;;;-0.43;100.00;97359.72;5026441;28;20846;-87
2022/01/11 03:32:19;;;;;;;35.87;18.60;;;;;;;-0.48;100.00;97361.66;5038568;28;20812;-87
2022/01/11 03:34:46;;;;;;;34.47;18.00;;;;;;;-0.47;100.00;97360.72;5018770;28;20456;-87
2022/01/11 03:37:16;;;;;;;33.53;18.33;;;;;;;-0.48;100.00;97372.81;5007107;28;20455;-86
2022/01/11 03:39:44;;;;;;;32.37;18.53;;;;;;;-0.46;100.00;97367.59;5020266;28;20467;-87
2022/01/11 03:42:10;;;;;;;32.07;18.53;;;;;;;-0.45;100.00;97368.44;5016948;28;21005;-87
2022/01/11 03:44:40;;;;;;;32.27;17.50;;;;;;;-0.44;100.00;97364.94;5026059;28;20444;-87
2022/01/11 03:47:07;;;;;;;28.47;18.07;;;;;;;-0.46;100.00;97372.78;5008476;28;20029;-86
2022/01/11 03:49:33;;;;;;;35.03;18.73;;;;;;;-0.42;100.00;97366.56;5028959;28;20448;-86
2022/01/11 03:52:03;;;;;;;29.57;16.53;;;;;;;-0.40;100.00;97375.09;5022100;28;20614;-87
2022/01/11 03:57:32;;;;;;;34.67;16.73;;;;;;;-0.36;100.00;97371.50;5018597;28;20551;-87
2022/01/11 03:59:59;;;;;;;30.30;16.37;;;;;;;-0.36;100.00;97370.66;5019873;28;20467;-87
2022/01/11 04:02:26;;;;;;;31.30;15.60;;;;;;;-0.36;100.00;97371.50;4999854;28;20452;-87
2022/01/11 04:04:54;;;;;;;32.67;15.90;;;;;;;-0.38;100.00;97377.63;5027044;28;20463;-86
2022/01/11 04:07:22;;;;;;;33.73;17.20;;;;;;;-0.37;100.00;97380.16;5020092;28;20466;-87
2022/01/11 04:09:49;;;;;;;30.73;16.00;;;;;;;-0.34;100.00;97369.66;5032382;28;20495;-86
2022/01/11 04:12:23;;;;;;;26.50;15.40;;;;;;;-0.34;100.00;97380.00;5000542;28;20924;-86
2022/01/11 04:14:50;;;;;;;34.97;17.88;;;;;;;-0.35;100.00;97378.31;5022662;28;20487;-87
2022/01/11 04:17:18;;;;;;;30.60;16.97;;;;;;;-0.36;100.00;97376.66;5008105;28;20707;-86
2022/01/11 04:19:45;;;;;;;27.63;14.87;;;;;;;-0.38;100.00;97378.44;5029403;28;20479;-87
2022/01/11 04:25:40;;;;;;;24.47;15.43;;;;;;;-0.33;100.00;97380.88;5031516;28;20453;-87
2022/01/11 04:28:07;;;;;;;26.63;15.60;;;;;;;-0.33;100.00;97381.69;5036002;28;20488;-86
2022/01/11 04:30:33;;;;;;;39.63;20.07;;;;;;;-0.34;100.00;97389.50;5022358;28;21108;-87
2022/01/11 04:32:59;;;;;;;38.33;19.53;;;;;;;-0.34;100.00;97382.59;5025892;28;20460;-86
2022/01/11 04:35:25;;;;;;;28.70;16.33;;;;;;;-0.37;100.00;97389.63;5039329;28;20454;-87
2022/01/11 04:37:51;;;;;;;29.63;15.87;;;;;;;-0.36;100.00;97386.16;5031840;28;20021;-86
2022/01/11 04:40:20;;;;;;;29.90;16.80;;;;;;;-0.39;100.00;97396.63;5049775;28;20480;-87
2022/01/11 04:42:50;;;;;;;30.07;16.20;;;;;;;-0.41;100.00;97394.09;5032632;28;20029;-87
2022/01/11 04:45:16;;;;;;;28.97;18.37;;;;;;;-0.41;100.00;97394.09;5015032;28;20518;-86
2022/01/11 04:47:52;;;;;;;39.57;25.93;;;;;;;-0.42;100.00;97402.75;5030137;28;20472;-87
2022/01/11 04:50:18;;;;;;;30.20;21.37;;;;;;;-0.36;100.00;97402.50;5023118;28;20570;-87
2022/01/11 04:52:47;;;;;;;27.63;17.30;;;;;;;-0.37;100.00;97405.13;5031774;28;20436;-87
2022/01/11 04:55:18;;;;;;;31.00;15.80;;;;;;;-0.35;100.00;97404.16;5016158;28;20989;-87
2022/01/11 04:57:47;;;;;;;29.33;15.70;;;;;;;-0.33;100.00;97409.28;5030930;28;21029;-87
2022/01/11 05:00:15;;;;;;;26.40;14.73;;;;;;;-0.32;100.00;97419.56;5027804;28;20796;-87
2022/01/11 05:02:51;;;;;;;29.20;16.23;;;;;;;-0.30;100.00;97412.59;5023389;28;20471;-87
2022/01/11 05:05:17;;;;;;;33.50;19.73;;;;;;;-0.33;100.00;97415.31;5022395;28;20490;-87
2022/01/11 05:07:55;;;;;;;33.93;17.83;;;;;;;-0.36;100.00;97415.44;5022827;28;20456;-87
2022/01/11 05:10:22;;;;;;;31.47;16.50;;;;;;;-0.34;100.00;97411.00;5015169;28;20468;-87
2022/01/11 05:12:47;;;;;;;27.57;16.23;;;;;;;-0.32;100.00;97411.81;5037808;28;20456;-86
2022/01/11 05:15:16;;;;;;;28.37;16.53;;;;;;;-0.33;100.00;97425.63;5031003;28;20535;-87
2022/01/11 05:17:43;;;;;;;35.87;17.90;;;;;;;-0.28;100.00;97421.09;5038998;28;20456;-87
2022/01/11 05:20:12;;;;;;;31.20;16.83;;;;;;;-0.28;100.00;97415.09;5008231;28;21031;-87
2022/01/11 05:22:45;;;;;;;31.77;19.03;;;;;;;-0.30;100.00;97415.19;5010863;28;20036;-87
2022/01/11 05:25:14;;;;;;;39.20;26.10;;;;;;;-0.31;100.00;97416.06;5028570;28;21162;-86
2022/01/11 05:31:27;;;;;;;28.23;16.67;;;;;;;-0.27;100.00;97421.94;5042938;28;20507;-87
2022/01/11 05:33:53;;;;;;;32.00;19.30;;;;;;;-0.30;100.00;97427.25;5041037;28;20460;-87
2022/01/11 05:36:19;;;;;;;26.40;16.37;;;;;;;-0.29;100.00;97431.53;5034748;28;21061;-87
2022/01/11 05:38:46;;;;;;;30.67;16.97;;;;;;;-0.33;100.00;97433.41;5034403;28;20468;-87
2022/01/11 05:41:12;;;;;;;28.43;17.13;;;;;;;-0.32;100.00;97429.91;5015241;28;20456;-87
2022/01/11 05:43:38;;;;;;;31.00;16.07;;;;;;;-0.33;100.00;97432.56;5022986;28;20602;-87
2022/01/11 05:46:06;;;;;;;29.60;16.53;;;;;;;-0.32;100.00;97431.66;5023032;28;20060;-86
2022/01/11 05:48:34;;;;;;;25.20;15.40;;;;;;;-0.33;100.00;97435.97;5021339;28;20463;-87
2022/01/11 05:51:00;;;;;;;29.20;15.80;;;;;;;-0.28;100.00;97434.03;5030531;28;20506;-87
2022/01/11 05:53:28;;;;;;;33.50;22.40;;;;;;;-0.27;100.00;97440.91;5009955;28;21328;-87
2022/01/11 05:55:54;;;;;;;59.57;49.23;;;;;;;-0.26;100.00;97445.16;5016131;28;20464;-87
2022/01/11 05:58:20;;;;;;;39.07;26.47;;;;;;;-0.28;100.00;97438.34;5036076;28;20495;-87
2022/01/11 06:00:46;;;;;;;29.23;17.07;;;;;;;-0.31;100.00;97449.66;5017426;28;20384;-88
2022/01/11 06:03:14;;;;;;;31.40;17.13;;;;;;;-0.35;100.00;97453.28;5013593;28;21097;-87
2022/01/11 06:05:44;;;;;;;28.63;15.47;;;;;;;-0.34;100.00;97462.69;5028431;28;20478;-88
2022/01/11 06:08:16;;;;;;;33.57;15.90;;;;;;;-0.34;100.00;97467.03;5029852;28;20444;-86
2022/01/11 06:10:44;;;;;;;50.93;33.77;;;;;;;-0.30;100.00;97469.47;5017174;28;20471;-87
2022/01/11 06:13:19;;;;;;;67.07;43.20;;;;;;;-0.22;100.00;97476.06;4998321;28;20460;-87
2022/01/11 06:15:46;;;;;;;48.13;34.20;;;;;;;-0.26;100.00;97477.94;5023303;28;20559;-87
2022/01/11 06:18:14;;;;;;;35.80;23.90;;;;;;;-0.27;100.00;97479.66;5018259;28;20455;-87
2022/01/11 06:21:01;;;;;;;30.80;17.33;;;;;;;-0.26;100.00;97483.94;5026393;28;20842;-87
2022/01/11 06:23:27;;;;;;;31.07;16.77;;;;;;;-0.30;100.00;97484.97;5019308;28;20460;-87
2022/01/11 06:25:53;;;;;;;32.47;16.83;;;;;;;-0.28;100.00;97487.47;5039637;28;20460;-87
2022/01/11 06:28:19;;;;;;;28.63;16.40;;;;;;;-0.29;100.00;97491.81;5004793;28;20095;-87
2022/01/11 06:30:45;;;;;;;32.43;17.67;;;;;;;-0.31;100.00;97491.00;5027161;28;20030;-87
2022/01/11 06:33:11;;;;;;;28.67;16.63;;;;;;;-0.29;100.00;97486.63;5029006;28;20764;-87
2022/01/11 06:35:43;;;;;;;33.83;16.83;;;;;;;-0.25;100.00;97493.34;5020988;28;20468;-87
2022/01/11 06:38:10;;;;;;;35.83;19.40;;;;;;;-0.27;100.00;97495.19;5010524;28;20535;-87
2022/01/11 06:40:36;;;;;;;34.60;19.97;;;;;;;-0.26;100.00;97490.84;5008301;28;20448;-87
2022/01/11 06:43:02;;;;;;;34.23;19.10;;;;;;;-0.22;100.00;97489.81;5019404;28;20471;-87
2022/01/11 06:46:06;;;;;;;33.90;18.10;;;;;;;-0.23;100.00;97498.47;5016480;28;20451;-88
2022/01/11 06:48:33;;;;;;;33.45;18.08;;;;;;;-0.27;100.00;97502.94;5010089;28;20460;-88
2022/01/11 06:50:59;;;;;;;39.60;19.80;;;;;;;-0.24;100.00;97501.94;5030122;28;20506;-87
2022/01/11 06:53:33;;;;;;;80.73;46.37;;;;;;;-0.26;100.00;97512.38;5028946;28;20594;-88
2022/01/11 06:56:05;;;;;;;81.70;53.33;;;;;;;-0.19;100.00;97512.13;5020567;28;21048;-87
2022/01/11 06:58:38;;;;;;;64.82;50.55;;;;;;;-0.24;100.00;97515.72;5029252;28;20341;-87
2022/01/11 07:01:45;;;;;;;45.93;30.40;;;;;;;-0.27;100.00;97513.28;5040115;28;20515;-88
2022/01/11 07:04:27;;;;;;;36.87;21.27;;;;;;;-0.24;100.00;97515.72;5021196;28;20461;-87
2022/01/11 07:06:55;;;;;;;34.80;18.10;;;;;;;-0.24;100.00;97517.47;5008536;28;20461;-87
2022/01/11 07:13:21;;;;;;;31.88;18.73;;;;;;;-0.24;100.00;97528.63;5007459;28;20125;-87
2022/01/11 07:16:16;;;;;;;35.20;16.63;;;;;;;-0.26;100.00;97520.13;5008278;28;20030;-87
2022/01/11 07:18:47;;;;;;;36.33;18.13;;;;;;;-0.23;100.00;97526.91;5019953;28;20468;-87
2022/01/11 07:21:28;;;;;;;33.60;18.57;;;;;;;-0.26;100.00;97533.03;5027044;28;20543;-87
2022/01/11 07:24:34;;;;;;;36.47;19.87;;;;;;;-0.23;100.00;97534.69;5013643;28;20575;-87
2022/01/11 07:28:01;;;;;;;33.47;18.73;;;;;;;-0.19;100.00;97532.81;5008330;28;20459;-87
2022/01/11 07:39:12;;;;;;;34.67;18.63;;;;;;;-0.17;100.00;97541.31;5018677;28;20434;-87
2022/01/11 07:41:41;;;;;;;32.57;19.87;;;;;;;-0.18;100.00;97534.47;5027420;28;20895;-87
2022/01/11 07:44:28;;;;;;;32.53;19.97;;;;;;;-0.14;100.00;97546.38;5011873;28;20471;-87
2022/01/11 07:47:05;;;;;;;37.63;18.37;;;;;;;-0.12;100.00;97545.41;5016544;28;20455;-87
2022/01/11 07:53:23;;;;;;;35.07;17.07;;;;;;;-0.12;100.00;97555.75;5043732;28;20454;-87
2022/01/11 07:55:55;;;;;;;30.47;17.30;;;;;;;-0.12;100.00;97558.34;5011650;28;20479;-88
2022/01/11 07:58:25;;;;;;;39.23;23.07;;;;;;;-0.12;100.00;97560.09;5017641;28;20467;-89
2022/01/11 08:00:58;;;;;;;48.70;28.10;;;;;;;-0.06;100.00;97559.84;5016460;28;20448;-89
2022/01/11 08:03:33;;;;;;;38.03;20.57;;;;;;;-0.07;100.00;97565.91;5026861;28;20493;-89
2022/01/11 08:06:07;;;;;;;34.63;18.57;;;;;;;-0.04;100.00;97564.03;5035265;28;20487;-89
2022/01/11 08:08:52;;;;;;;34.87;18.97;;;;;;;-0.02;100.00;97569.16;5033095;28;20563;-89
2022/01/11 08:11:23;;;;;;;34.70;20.60;;;;;;;0.03;100.00;97563.81;5015484;28;20128;-89
2022/01/11 08:13:52;;;;;;;35.77;22.50;;;;;;;0.05;100.00;97570.59;5040879;28;20491;-89
2022/01/11 08:16:21;;;;;;;35.73;20.10;;;;;;;0.06;100.00;97579.19;5037029;28;20460;-89
2022/01/11 08:19:16;;;;;;;33.63;19.40;;;;;;;0.06;100.00;97574.03;5020947;28;20045;-89
2022/01/11 08:21:43;;;;;;;31.73;18.03;;;;;;;0.07;100.00;97581.75;5007504;28;20475;-89
2022/01/11 08:24:10;;;;;;;33.27;20.67;;;;;;;0.08;100.00;97583.41;5015565;28;20028;-87
2022/01/11 08:26:38;;;;;;;33.73;19.47;;;;;;;0.15;100.00;97584.84;5004051;28;20029;-89
2022/01/11 08:29:05;;;;;;;36.00;19.30;;;;;;;0.17;100.00;97588.22;5035547;28;20452;-89
2022/01/11 08:31:32;;;;;;;38.63;21.00;;;;;;;0.23;100.00;97581.94;5017432;28;20030;-89
2022/01/11 08:34:00;;;;;;;28.23;16.83;;;;;;;0.24;100.00;97583.66;5015227;28;20468;-89
2022/01/11 08:36:26;;;;;;;31.20;17.77;;;;;;;0.28;100.00;97590.38;5031989;28;20037;-89
2022/01/11 08:39:01;;;;;;;33.60;17.97;;;;;;;0.27;100.00;97593.88;5019159;28;20037;-89
2022/01/11 08:41:32;;;;;;;30.83;17.25;;;;;;;0.30;100.00;97595.47;5018036;28;20025;-89
2022/01/11 08:43:58;;;;;;;31.00;17.80;;;;;;;0.32;100.00;97599.69;5020365;28;20037;-88
2022/01/11 08:46:24;;;;;;;34.33;18.90;;;;;;;0.35;100.00;97601.31;5013905;28;20045;-88
2022/01/11 08:49:04;;;;;;;31.87;18.70;;;;;;;0.42;100.00;97602.75;5016373;28;20026;-88
2022/01/11 08:51:30;;;;;;;31.60;17.97;;;;;;;0.43;100.00;97604.41;5031625;28;20480;-87
2022/01/11 08:54:01;;;;;;;30.87;17.07;;;;;;;0.45;100.00;97603.44;5030870;28;20029;-88
2022/01/11 08:56:29;;;;;;;29.33;18.10;;;;;;;0.49;100.00;97604.16;4995692;28;20721;-88
2022/01/11 08:58:55;;;;;;;27.63;17.40;;;;;;;0.58;100.00;97596.03;5021200;28;20120;-88
2022/01/11 09:01:28;;;;;;;33.17;18.90;;;;;;;0.61;100.00;97593.31;5038134;28;20040;-87
2022/01/11 09:03:55;;;;;;;29.23;17.30;;;;;;;0.66;100.00;97588.75;5030293;28;20491;-88
2022/01/11 09:06:21;;;;;;;27.53;16.53;;;;;;;0.68;100.00;97604.25;5011163;28;20025;-89
2022/01/11 09:08:48;;;;;;;32.63;19.07;;;;;;;0.64;100.00;97595.78;4999091;28;20033;-89
2022/01/11 09:11:13;;;;;;;28.83;16.17;;;;;;;0.74;100.00;97610.91;5021777;28;20025;-89
2022/01/11 09:13:46;;;;;;;33.80;17.03;;;;;;;0.73;100.00;97606.63;5012744;28;20052;-89
2022/01/11 09:16:15;;;;;;;30.37;19.20;;;;;;;0.75;100.00;97612.59;5019590;28;20025;-89
2022/01/11 09:18:44;;;;;;;31.30;19.57;;;;;;;0.75;100.00;97605.66;5007720;28;20484;-88
2022/01/11 09:21:10;;;;;;;27.07;16.57;;;;;;;0.75;100.00;97612.59;5029867;28;20028;-89
2022/01/11 09:23:38;;;;;;;26.60;17.60;;;;;;;0.72;100.00;97613.56;5041770;28;20024;-89
2022/01/11 09:26:13;;;;;;;30.80;17.10;;;;;;;0.80;100.00;97615.81;5002919;28;20025;-89
2022/01/11 09:28:46;;;;;;;27.37;16.40;;;;;;;0.80;100.00;97615.81;5029041;28;20037;-89
2022/01/11 09:31:11;;;;;;;33.47;17.37;;;;;;;0.89;100.00;97620.63;5014729;28;20460;-88
2022/01/11 09:33:37;;;;;;;30.03;15.80;;;;;;;0.85;100.00;97619.06;5034310;28;20036;-89
2022/01/11 09:36:04;;;;;;;33.43;18.33;;;;;;;0.84;100.00;97619.94;5018786;28;20022;-89
2022/01/11 09:38:30;;;;;;;30.67;17.27;;;;;;;0.78;100.00;97617.66;5027756;28;20056;-89
2022/01/11 09:40:58;;;;;;;27.00;17.03;;;;;;;0.89;100.00;97615.44;5000267;28;20029;-89
2022/01/11 09:43:29;;;;;;;31.23;19.07;;;;;;;1.03;100.00;97622.59;5019804;28;20029;-88
2022/01/11 09:46:45;;;;;;;27.00;16.93;;;;;;;1.00;100.00;97626.16;5029338;28;20025;-89
2022/01/11 09:49:44;;;;;;;29.40;16.73;;;;;;;1.03;100.00;97623.44;5026714;28;20039;-88
2022/01/11 09:52:27;;;;;;;28.80;16.20;;;;;;;1.04;100.00;97632.91;5051456;28;20705;-88
2022/01/11 09:54:55;;;;;;;27.27;16.57;;;;;;;1.18;100.00;97622.78;5012615;28;20061;-88
2022/01/11 09:57:24;;;;;;;29.07;16.50;;;;;;;1.22;100.00;97622.66;5030091;28;20063;-88
2022/01/11 10:00:07;;;;;;;27.13;14.67;;;;;;;1.10;100.00;97613.66;5014006;28;20826;-88
2022/01/11 10:02:52;;;;;;;28.07;14.93;;;;;;;1.13;100.00;97623.88;5027447;28;20698;-89
2022/01/11 10:09:31;;;;;;;25.63;14.30;;;;;;;1.17;100.00;97613.34;5031833;28;20047;-89
2022/01/11 10:12:00;;;;;;;32.73;15.97;;;;;;;1.11;100.00;97626.56;5013209;28;20122;-89
2022/01/11 10:14:35;;;;;;;25.20;14.00;;;;;;;1.19;100.00;97631.41;5029072;28;20060;-89
2022/01/11 10:17:08;;;;;;;26.77;15.93;;;;;;;1.28;100.00;97627.56;5013035;28;20380;-89
2022/01/11 10:19:41;;;;;;;31.97;15.67;;;;;;;1.25;100.00;97627.72;5011597;28;20572;-89
2022/01/11 10:22:10;;;;;;;21.48;12.05;;;;;;;1.15;100.00;97620.34;5014827;28;20018;-89
2022/01/11 10:24:42;;;;;;;27.47;16.07;;;;;;;1.26;100.00;97622.44;5013625;28;20420;-89
2022/01/11 10:27:19;;;;;;;33.87;16.67;;;;;;;1.36;100.00;97622.88;5036940;28;20037;-89
2022/01/11 10:29:57;;;;;;;30.40;15.50;;;;;;;1.37;100.00;97621.97;5051910;28;20152;-89
2022/01/11 10:32:31;;;;;;;30.07;17.73;;;;;;;1.45;100.00;97621.63;5054502;28;20053;-89
2022/01/11 10:35:17;;;;;;;36.37;22.73;;;;;;;1.69;100.00;97624.88;5031549;28;20064;-89
2022/01/11 10:37:48;;;;;;;31.80;16.50;;;;;;;1.58;100.00;97617.59;5015669;28;20033;-89
2022/01/11 10:40:20;;;;;;;26.07;14.87;;;;;;;1.82;100.00;97623.41;5011177;28;20034;-88
2022/01/11 10:42:58;;;;;;;26.25;15.50;;;;;;;1.87;100.00;97629.19;5029545;28;20056;-89
2022/01/11 10:45:26;;;;;;;25.37;14.03;;;;;;;1.90;100.00;97629.06;5012559;28;20107;-89
2022/01/11 10:47:58;;;;;;;25.90;14.70;;;;;;;1.97;100.00;97629.59;5021533;28;20599;-89
2022/01/11 10:50:34;;;;;;;23.30;14.43;;;;;;;1.99;100.00;97622.59;5012325;28;20037;-89
2022/01/11 10:53:06;;;;;;;30.37;14.80;;;;;;;1.90;100.00;97623.84;5001845;28;20116;-88
2022/01/11 10:55:34;;;;;;;23.67;14.77;;;;;;;1.93;100.00;97623.72;5016900;28;20038;-88
2022/01/11 10:58:04;;;;;;;26.40;14.07;;;;;;;1.99;100.00;97620.84;5011767;28;20029;-89
2022/01/11 11:00:37;;;;;;;23.53;13.23;;;;;;;2.15;100.00;97620.97;5036927;28;20045;-88
2022/01/11 11:03:14;;;;;;;29.95;14.52;;;;;;;2.06;100.00;97618.81;5029147;28;20033;-89
2022/01/11 11:05:47;;;;;;;22.27;13.93;;;;;;;2.40;100.00;97618.00;5012281;28;20037;-89
2022/01/11 11:12:23;;;;;;;22.07;12.00;;;;;;;2.21;100.00;97622.41;5026897;28;20033;-88
2022/01/11 11:14:59;;;;;;;25.67;14.00;;;;;;;2.16;100.00;97619.22;5028794;28;20060;-88
2022/01/11 11:18:19;;;;;;;22.07;13.17;;;;;;;2.41;100.00;97624.03;5028923;28;20033;-89
2022/01/11 11:20:45;;;;;;;25.07;12.53;;;;;;;2.35;100.00;97620.84;5012229;28;20029;-89
2022/01/11 11:23:12;;;;;;;22.67;13.60;;;;;;;2.38;100.00;97624.19;5020698;28;20033;-88
2022/01/11 11:25:40;;;;;;;19.43;11.83;;;;;;;2.70;100.00;97617.41;5041031;28;20188;-89
2022/01/11 11:28:10;;;;;;;25.00;13.50;;;;;;;2.74;100.00;97622.38;5032760;28;20491;-88
2022/01/11 11:30:36;;;;;;;23.23;12.50;;;;;;;3.14;100.00;97624.72;5032786;28;20061;-88
2022/01/11 11:33:02;;;;;;;24.27;14.90;;;;;;;3.25;100.00;97619.78;5003985;28;20040;-89
2022/01/11 11:35:29;;;;;;;25.73;13.37;;;;;;;3.18;100.00;97618.44;5026563;28;20124;-88
2022/01/11 11:38:03;;;;;;;16.50;10.60;;;;;;;2.82;100.00;97622.00;5043854;28;20055;-88
2022/01/11 11:40:38;;;;;;;14.17;8.50;;;;;;;2.66;100.00;97613.31;5018229;28;20091;-88
2022/01/11 11:43:10;;;;;;;20.67;14.73;;;;;;;2.87;100.00;97617.41;5022778;28;20065;-88
2022/01/11 11:45:52;;;;;;;12.07;7.73;;;;;;;2.55;100.00;97617.28;5011995;28;20026;-88
2022/01/11 11:48:23;;;;;;;14.50;7.23;;;;;;;2.57;100.00;97615.41;5010864;28;20087;-88
2022/01/11 11:51:04;;;;;;;13.50;7.07;;;;;;;2.39;100.00;97616.34;5032224;28;20034;-88
2022/01/11 11:53:35;;;;;;;13.60;8.07;;;;;;;2.38;100.00;97621.59;5032218;28;20041;-87
2022/01/11 11:56:21;;;;;;;16.03;9.20;;;;;;;2.30;100.00;97625.41;5036851;28;20116;-87
2022/01/11 11:59:09;;;;;;;18.70;9.80;;;;;;;2.18;100.00;97622.56;5021719;28;20103;-87
2022/01/11 12:05:47;;;;;;;15.93;9.67;;;;;;;2.07;100.00;97615.28;5046695;28;20565;-87
2022/01/11 12:08:41;;;;;;;13.60;8.33;;;;;;;1.94;100.00;97616.78;5040605;28;20132;-87
2022/01/11 12:11:16;;;;;;;15.30;7.97;;;;;;;1.88;100.00;97610.13;5030528;28;20049;-87
2022/01/11 12:14:07;;;;;;;12.77;8.30;;;;;;;1.96;100.00;97615.78;5021411;28;20479;-87